Little Falls, Wisconsin
Current Conditions -  °F | °C
As of 10:55 PM on Saturday 22 Nov 2014 (Local Time) from KOEO Reporting Station
Haze Haze  
Wind Chill: 32°   Ceiling: 300
Heat Index: 37°   Visibility: 2.5mi
Dew Point: 37°   Wind: 7mph
Humidity: 100%   Direction: 130°SE
Pressure: 29.57"   Gusts: NA
Location:  45.3559°N, 92.3527°W
Report Text: KOEO 230455Z AUTO 13006KT 2 1/2SM BR OVC003 03/03 A2957 RMK AO2 T00300030
Loading
Personal Weather Stations






























Interactive Weather Map New forecast layout! Learn more

10-Day Weather Forecast

Advertisements
Track Severe Weather on mobile